X  Close Metar Aviation Weather Data     LDPL Pula Airport
Temperature
27°C Temperature
7°C Dewpoint
28% Humidity



Wind
2 M/S
5 MPH
8 KM/H
4 KTS



Calm
N
Current Conditions

Partly Cloudy Partly Cloudy
Pressure 1011.92 (hPa) - 29.88 (inHg)
Visibility 6.2 (mile) - 10 (km)
Airport
Airport-code LDPL

Location: Pula Airport
Distance: 39 (km)

Metar:
LDPL 131100Z VRB04KT 9999 FEW055 27/07 Q1012 NOSIG

Time: 13-08-2022 13:00 CEST